createdAt,value
2017-10-24T00:01:22.608Z,15.75
2017-10-24T00:04:07.461Z,15.81
2017-10-24T00:07:02.782Z,15.65
2017-10-24T00:12:29.033Z,15.80
2017-10-24T00:15:26.305Z,15.71
2017-10-24T00:17:59.432Z,15.74
2017-10-24T00:20:32.227Z,15.65
2017-10-24T00:23:04.517Z,15.56
2017-10-24T00:25:37.720Z,15.62
2017-10-24T00:28:16.026Z,15.71
2017-10-24T00:30:50.730Z,15.73
2017-10-24T00:33:25.145Z,15.66
2017-10-24T00:35:57.956Z,15.73
2017-10-24T00:38:37.487Z,15.61
2017-10-24T00:41:10.032Z,15.57
2017-10-24T00:43:41.737Z,15.51
2017-10-24T00:46:13.733Z,15.44
2017-10-24T00:53:04.244Z,15.54
2017-10-24T00:55:36.658Z,15.32
2017-10-24T00:58:08.656Z,15.38
2017-10-24T01:00:41.256Z,15.53
2017-10-24T01:03:27.464Z,15.46
2017-10-24T01:08:51.047Z,15.54
2017-10-24T01:11:23.855Z,15.62
2017-10-24T01:13:56.576Z,15.56
2017-10-24T01:16:29.177Z,15.49
2017-10-24T01:19:01.171Z,15.66
2017-10-24T01:21:33.326Z,15.42
2017-10-24T01:24:08.484Z,15.59
2017-10-24T01:26:41.685Z,15.65
2017-10-24T01:29:17.196Z,15.65
2017-10-24T01:31:58.609Z,15.73
2017-10-24T01:34:30.937Z,15.77
2017-10-24T01:37:09.801Z,15.72
2017-10-24T01:39:41.833Z,15.77
2017-10-24T01:42:14.768Z,15.76
2017-10-24T01:44:49.696Z,15.76
2017-10-24T01:47:23.923Z,15.77
2017-10-24T01:49:58.382Z,15.77
2017-10-24T01:52:39.777Z,15.78
2017-10-24T01:55:14.860Z,15.68
2017-10-24T01:57:48.823Z,15.74
2017-10-24T02:00:25.969Z,15.84
2017-10-24T02:02:58.100Z,15.93
2017-10-24T02:08:30.364Z,15.74
2017-10-24T02:11:02.148Z,15.89
2017-10-24T02:13:34.258Z,15.88
2017-10-24T02:16:11.557Z,15.89
2017-10-24T02:19:08.192Z,15.85
2017-10-24T02:21:41.562Z,15.99
2017-10-24T02:24:37.746Z,15.87
2017-10-24T02:27:25.552Z,15.79
2017-10-24T02:30:09.343Z,15.85
2017-10-24T02:35:46.627Z,15.98
2017-10-24T02:38:21.048Z,16.04
2017-10-24T02:40:53.447Z,15.86
2017-10-24T02:43:25.674Z,16.04
2017-10-24T02:45:57.747Z,15.93
2017-10-24T02:48:30.049Z,16.01
2017-10-24T02:51:34.467Z,15.60
2017-10-24T02:57:10.644Z,15.94
2017-10-24T03:04:59.146Z,15.71
2017-10-24T03:07:39.444Z,15.80
2017-10-24T03:10:11.741Z,15.67
2017-10-24T03:13:15.277Z,15.71
2017-10-24T03:15:51.746Z,15.70
2017-10-24T03:18:32.845Z,15.65
2017-10-24T03:21:07.660Z,15.28
2017-10-24T03:23:39.561Z,15.47
2017-10-24T03:26:13.214Z,15.60
2017-10-24T03:28:45.549Z,15.73
2017-10-24T03:31:17.956Z,15.80
2017-10-24T03:33:51.569Z,15.73
2017-10-24T03:36:24.579Z,15.76
2017-10-24T03:38:56.369Z,15.45
2017-10-24T03:41:28.472Z,15.41
2017-10-24T03:44:00.718Z,15.63
2017-10-24T03:46:33.882Z,15.79
2017-10-24T03:49:05.659Z,15.77
2017-10-24T03:51:38.873Z,15.73
2017-10-24T03:54:10.887Z,15.78
2017-10-24T03:56:43.075Z,15.87
2017-10-24T03:59:15.087Z,15.87
2017-10-24T04:01:49.224Z,16.01
2017-10-24T04:04:22.061Z,15.95
2017-10-24T04:06:56.956Z,15.86
2017-10-24T04:09:29.054Z,15.90
2017-10-24T04:12:00.758Z,15.95
2017-10-24T04:14:32.551Z,15.88
2017-10-24T04:17:04.943Z,15.74
2017-10-24T04:19:37.550Z,15.51
2017-10-24T04:31:16.250Z,15.33
2017-10-24T04:33:48.841Z,15.55
2017-10-24T04:36:20.655Z,15.77
2017-10-24T04:38:54.175Z,15.59
2017-10-24T04:41:27.392Z,15.62
2017-10-24T04:44:02.275Z,15.07
2017-10-24T04:46:34.487Z,15.37
2017-10-24T04:49:07.476Z,15.55
2017-10-24T04:51:39.714Z,15.72
2017-10-24T04:54:13.574Z,15.94
2017-10-24T04:56:49.615Z,15.86
2017-10-24T04:59:27.447Z,15.87
2017-10-24T05:01:59.572Z,15.83
2017-10-24T05:04:31.369Z,15.82
2017-10-24T05:07:02.864Z,15.85
2017-10-24T05:09:34.977Z,15.89
2017-10-24T05:12:06.227Z,15.80
2017-10-24T05:14:43.065Z,15.76
2017-10-24T05:17:18.466Z,15.83
2017-10-24T05:20:02.677Z,15.71
2017-10-24T05:22:34.609Z,15.56
2017-10-24T05:25:29.544Z,15.67
2017-10-24T05:28:02.477Z,15.69
2017-10-24T05:30:35.168Z,15.48
2017-10-24T05:33:07.707Z,15.72
2017-10-24T05:35:39.882Z,15.73
2017-10-24T05:38:11.797Z,15.62
2017-10-24T05:40:43.842Z,15.49
2017-10-24T05:43:29.077Z,15.52
2017-10-24T05:46:07.278Z,15.51
2017-10-24T05:48:39.777Z,15.53
2017-10-24T05:51:11.670Z,14.95
2017-10-24T05:53:45.083Z,15.42
2017-10-24T05:56:17.728Z,15.36
2017-10-24T05:58:54.673Z,15.62
2017-10-24T06:01:27.794Z,15.80
2017-10-24T06:04:00.004Z,15.76
2017-10-24T06:06:32.484Z,15.21
2017-10-24T06:09:09.279Z,15.41
2017-10-24T06:11:41.486Z,15.19
2017-10-24T06:14:14.677Z,15.18
2017-10-24T06:16:49.005Z,15.43
2017-10-24T06:19:23.854Z,15.15
2017-10-24T06:21:58.480Z,15.25
2017-10-24T06:24:31.292Z,15.08
2017-10-24T06:29:37.289Z,15.01
2017-10-24T06:32:12.630Z,15.37
2017-10-24T06:34:45.523Z,15.44
2017-10-24T06:37:20.393Z,15.72
2017-10-24T06:39:53.088Z,15.83
2017-10-24T06:42:25.294Z,15.94
2017-10-24T06:44:57.790Z,16.09
2017-10-24T06:47:30.605Z,16.12
2017-10-24T06:50:04.585Z,15.96
2017-10-24T06:52:40.895Z,15.95
2017-10-24T06:55:18.799Z,16.08
2017-10-24T07:01:21.588Z,16.07
2017-10-24T07:03:59.714Z,16.27
2017-10-24T07:06:33.923Z,16.14
2017-10-24T07:09:37.695Z,16.17
2017-10-24T07:15:13.921Z,16.08
2017-10-24T07:18:19.440Z,16.22
2017-10-24T07:21:12.196Z,16.15
2017-10-24T07:23:44.106Z,16.19
2017-10-24T07:26:32.074Z,16.34
2017-10-24T07:29:12.579Z,15.78
2017-10-24T07:31:45.904Z,15.62
2017-10-24T07:34:22.779Z,15.66
2017-10-24T07:36:59.001Z,15.69
2017-10-24T07:39:32.220Z,15.57
2017-10-24T07:42:03.397Z,15.95
2017-10-24T07:44:36.415Z,15.69
2017-10-24T07:47:12.915Z,15.80
2017-10-24T07:49:47.757Z,15.63
2017-10-24T07:52:24.753Z,15.78
2017-10-24T07:55:03.607Z,15.90
2017-10-24T07:57:42.083Z,15.72
2017-10-24T08:00:29.303Z,16.13
2017-10-24T08:03:04.626Z,16.15
2017-10-24T08:06:06.809Z,16.35
2017-10-24T08:08:40.278Z,15.87
2017-10-24T08:11:20.079Z,16.12
2017-10-24T08:13:52.086Z,16.37
2017-10-24T08:16:26.303Z,16.33
2017-10-24T08:19:02.504Z,16.20
2017-10-24T08:21:51.174Z,16.42
2017-10-24T08:24:26.411Z,16.59
2017-10-24T08:27:13.412Z,16.80
2017-10-24T08:29:46.428Z,16.94
2017-10-24T08:32:32.513Z,16.87
2017-10-24T08:35:04.887Z,17.05
2017-10-24T08:37:37.595Z,16.92
2017-10-24T08:40:12.930Z,16.98
2017-10-24T08:46:09.666Z,16.22
2017-10-24T08:48:59.011Z,16.18
2017-10-24T08:54:27.100Z,16.43
2017-10-24T08:56:59.696Z,16.51
2017-10-24T08:59:36.659Z,16.75
2017-10-24T09:02:10.268Z,16.93
2017-10-24T09:04:51.774Z,17.10
2017-10-24T09:08:45.096Z,16.64
2017-10-24T09:13:33.765Z,16.86
2017-10-24T09:16:17.643Z,16.71
2017-10-24T09:18:55.222Z,17.04
2017-10-24T09:21:39.556Z,17.43
2017-10-24T09:24:12.505Z,17.63
2017-10-24T09:26:44.441Z,17.38
2017-10-24T09:29:18.287Z,17.09
2017-10-24T09:31:51.724Z,17.66
2017-10-24T09:34:26.559Z,17.35
2017-10-24T09:37:02.844Z,17.48
2017-10-24T09:39:35.515Z,17.43
2017-10-24T09:42:36.321Z,17.66
2017-10-24T09:45:20.233Z,17.63
2017-10-24T09:47:59.053Z,17.74
2017-10-24T09:50:41.936Z,17.78
2017-10-24T09:53:15.628Z,17.70
2017-10-24T09:55:57.121Z,18.00
2017-10-24T09:58:57.560Z,17.97
2017-10-24T10:01:35.581Z,17.90
2017-10-24T10:04:08.503Z,17.96
2017-10-24T10:06:42.514Z,17.94
2017-10-24T10:09:19.544Z,17.84
2017-10-24T10:12:00.030Z,18.32
2017-10-24T10:14:33.410Z,18.87
2017-10-24T10:17:07.135Z,18.84
2017-10-24T10:19:40.938Z,18.63
2017-10-24T10:22:27.460Z,18.22
2017-10-24T10:25:06.239Z,18.06
2017-10-24T10:28:01.842Z,18.16
2017-10-24T10:30:38.402Z,18.04
2017-10-24T10:35:59.352Z,18.31
2017-10-24T10:38:32.514Z,18.27
2017-10-24T10:41:06.414Z,17.90
2017-10-24T10:43:39.637Z,18.23
2017-10-24T10:46:14.356Z,17.99
2017-10-24T10:48:47.632Z,17.95
2017-10-24T10:51:29.564Z,18.02
2017-10-24T10:54:02.360Z,17.99
2017-10-24T10:56:44.262Z,18.33
2017-10-24T10:59:16.109Z,18.36
2017-10-24T11:01:47.263Z,18.27
2017-10-24T11:04:31.814Z,18.26
2017-10-24T11:07:10.046Z,18.29
2017-10-24T11:09:59.704Z,18.31
2017-10-24T11:12:34.006Z,18.15
2017-10-24T11:17:54.971Z,18.73
2017-10-24T11:20:28.719Z,18.56
2017-10-24T11:23:07.698Z,18.81
2017-10-24T11:25:41.128Z,18.46
2017-10-24T11:28:13.382Z,18.70
2017-10-24T11:30:47.079Z,18.77
2017-10-24T11:33:31.920Z,18.94
2017-10-24T11:36:10.595Z,19.08
2017-10-24T11:38:43.572Z,18.84
2017-10-24T11:41:16.977Z,18.76
2017-10-24T11:43:49.895Z,19.05
2017-10-24T11:46:34.236Z,19.14
2017-10-24T11:49:14.641Z,19.26
2017-10-24T11:52:02.274Z,19.41
2017-10-24T11:55:59.979Z,19.58
2017-10-24T11:58:37.259Z,19.20
2017-10-24T12:01:13.020Z,19.23
2017-10-24T12:03:46.082Z,19.33
2017-10-24T12:06:19.597Z,19.14
2017-10-24T12:08:54.036Z,18.88
2017-10-24T12:11:29.081Z,19.02
2017-10-24T12:14:02.819Z,19.10
2017-10-24T12:16:40.332Z,19.15
2017-10-24T12:19:24.498Z,19.44
2017-10-24T12:22:07.137Z,19.37
2017-10-24T12:24:41.112Z,19.38
2017-10-24T12:27:13.630Z,19.61
2017-10-24T12:29:49.021Z,19.46
2017-10-24T12:32:23.994Z,19.60
2017-10-24T12:37:50.839Z,19.45
2017-10-24T12:40:36.856Z,19.63
2017-10-24T12:43:09.952Z,19.96
2017-10-24T12:45:43.582Z,19.88
2017-10-24T12:48:16.923Z,19.98
2017-10-24T12:51:06.910Z,20.01
2017-10-24T12:53:43.395Z,20.00
2017-10-24T12:56:36.985Z,19.66
2017-10-24T12:59:12.391Z,19.54
2017-10-24T13:04:36.772Z,19.37
2017-10-24T13:07:09.610Z,19.40
2017-10-24T13:09:41.885Z,19.55
2017-10-24T13:12:17.097Z,19.42
2017-10-24T13:14:49.693Z,19.37
2017-10-24T13:17:48.935Z,19.17
2017-10-24T13:20:23.515Z,19.14
2017-10-24T13:22:59.695Z,19.23
2017-10-24T13:25:34.833Z,19.28
2017-10-24T13:28:16.898Z,19.24
2017-10-24T13:31:01.596Z,19.44
2017-10-24T13:33:34.108Z,19.44
2017-10-24T13:36:06.928Z,19.23
2017-10-24T13:38:40.422Z,19.34
2017-10-24T13:44:01.401Z,19.42
2017-10-24T13:46:37.617Z,19.59
2017-10-24T13:49:18.496Z,19.72
2017-10-24T13:51:53.980Z,19.74
2017-10-24T13:54:32.236Z,19.76
2017-10-24T13:57:13.202Z,19.70
2017-10-24T13:59:55.313Z,19.77
2017-10-24T14:02:32.014Z,19.77
2017-10-24T14:05:09.241Z,19.79
2017-10-24T14:08:56.988Z,19.83
2017-10-24T14:14:14.044Z,19.76
2017-10-24T14:16:46.888Z,19.69
2017-10-24T14:19:19.406Z,19.78
2017-10-24T14:21:54.808Z,19.76
2017-10-24T14:24:36.136Z,19.60
2017-10-24T14:27:12.030Z,19.63
2017-10-24T14:29:46.247Z,19.56
2017-10-24T14:32:18.910Z,19.59
2017-10-24T14:35:06.175Z,19.55
2017-10-24T14:37:44.178Z,19.53
2017-10-24T14:40:17.881Z,19.57
2017-10-24T14:42:56.937Z,19.33
2017-10-24T14:45:29.684Z,19.32
2017-10-24T14:48:18.825Z,19.32
2017-10-24T14:51:02.534Z,19.50
2017-10-24T14:53:36.281Z,19.54
2017-10-24T14:56:08.349Z,19.63
2017-10-24T15:01:29.269Z,19.61
2017-10-24T15:04:22.275Z,19.71
2017-10-24T15:06:56.581Z,19.60
2017-10-24T15:09:33.111Z,19.74
2017-10-24T15:12:08.798Z,19.80
2017-10-24T15:14:44.313Z,19.89
2017-10-24T15:17:20.820Z,19.83
2017-10-24T15:23:02.035Z,19.79
2017-10-24T15:25:35.814Z,19.79
2017-10-24T15:28:08.923Z,19.61
2017-10-24T15:30:45.694Z,19.53
2017-10-24T15:33:20.302Z,19.34
2017-10-24T15:35:56.430Z,19.20
2017-10-24T15:38:32.311Z,19.25
2017-10-24T15:41:11.813Z,19.43
2017-10-24T15:43:48.993Z,19.42
2017-10-24T15:49:19.518Z,19.44
2017-10-24T15:51:54.107Z,19.52
2017-10-24T15:54:29.855Z,19.49
2017-10-24T15:57:08.852Z,19.47
2017-10-24T15:59:42.188Z,19.42
2017-10-24T16:02:18.202Z,19.45
2017-10-24T16:04:51.061Z,19.54
2017-10-24T16:07:28.600Z,19.49
2017-10-24T16:10:01.596Z,19.63
2017-10-24T16:12:50.890Z,19.61
2017-10-24T16:15:27.714Z,19.65
2017-10-24T16:18:02.191Z,19.69
2017-10-24T16:20:34.721Z,19.43
2017-10-24T16:23:07.324Z,19.45
2017-10-24T16:25:41.758Z,19.44
2017-10-24T16:28:23.325Z,19.57
2017-10-24T16:31:02.724Z,19.58
2017-10-24T16:33:54.246Z,19.64
2017-10-24T16:36:30.583Z,19.73
2017-10-24T16:39:04.546Z,19.65
2017-10-24T16:41:37.435Z,19.64
2017-10-24T16:44:10.652Z,19.71
2017-10-24T16:46:43.237Z,19.67
2017-10-24T16:52:03.548Z,19.79
2017-10-24T16:54:37.153Z,19.82
2017-10-24T16:57:27.840Z,19.74
2017-10-24T17:00:07.437Z,19.66
2017-10-24T17:02:43.039Z,19.49
2017-10-24T17:05:27.146Z,19.64
2017-10-24T17:13:35.773Z,19.52
2017-10-24T17:16:20.101Z,19.65
2017-10-24T17:19:05.925Z,19.41
2017-10-24T17:21:44.350Z,19.54
2017-10-24T17:24:21.444Z,19.57
2017-10-24T17:27:05.991Z,19.58
2017-10-24T17:29:41.767Z,19.72
2017-10-24T17:32:19.826Z,19.48
2017-10-24T17:34:58.003Z,19.70
2017-10-24T17:37:35.331Z,19.79
2017-10-24T17:40:11.536Z,19.71
2017-10-24T17:42:47.886Z,19.74
2017-10-24T17:45:38.430Z,19.73
2017-10-24T17:48:15.934Z,19.78
2017-10-24T17:50:55.138Z,19.84
2017-10-24T17:53:30.467Z,19.56
2017-10-24T17:56:06.427Z,19.65
2017-10-24T17:58:44.138Z,19.72
2017-10-24T18:04:07.212Z,19.83
2017-10-24T18:06:46.389Z,19.74
2017-10-24T18:09:26.157Z,19.73
2017-10-24T18:12:11.111Z,19.69
2017-10-24T18:14:49.070Z,19.70
2017-10-24T18:17:30.893Z,19.60
2017-10-24T18:20:08.803Z,19.68
2017-10-24T18:22:50.356Z,19.80
2017-10-24T18:25:28.458Z,19.96
2017-10-24T18:28:09.057Z,19.86
2017-10-24T18:30:48.396Z,19.81
2017-10-24T18:33:32.057Z,19.70
2017-10-24T18:36:12.566Z,19.92
2017-10-24T18:38:51.267Z,19.92
2017-10-24T18:41:31.389Z,19.86
2017-10-24T18:44:18.305Z,19.74
2017-10-24T18:46:58.222Z,19.89
2017-10-24T18:49:45.297Z,19.84
2017-10-24T18:52:29.878Z,20.04
2017-10-24T18:55:14.695Z,20.00
2017-10-24T18:58:05.398Z,19.84
2017-10-24T19:00:49.315Z,19.75
2017-10-24T19:06:31.502Z,19.89
2017-10-24T19:09:10.125Z,19.92
2017-10-24T19:11:48.900Z,19.94
2017-10-24T19:14:31.020Z,19.97
2017-10-24T19:17:08.898Z,19.79
2017-10-24T19:19:53.772Z,19.76
2017-10-24T19:22:40.113Z,19.85
2017-10-24T19:25:17.710Z,19.81
2017-10-24T19:27:57.928Z,19.65
2017-10-24T19:30:39.710Z,19.74
2017-10-24T19:33:17.839Z,19.79
2017-10-24T19:38:49.629Z,19.70
2017-10-24T19:41:32.238Z,19.70
2017-10-24T19:44:10.646Z,19.51
2017-10-24T19:46:49.213Z,19.55
2017-10-24T19:49:33.762Z,19.54
2017-10-24T19:52:14.587Z,19.60
2017-10-24T19:55:02.567Z,19.68
2017-10-24T19:57:39.569Z,19.52
2017-10-24T20:00:25.757Z,19.55
2017-10-24T20:03:05.506Z,19.45
2017-10-24T20:05:44.543Z,19.68
2017-10-24T20:08:25.546Z,19.67
2017-10-24T20:11:05.448Z,19.74
2017-10-24T20:13:47.547Z,19.62
2017-10-24T20:16:27.431Z,19.62
2017-10-24T20:19:03.461Z,19.63
2017-10-24T20:21:42.292Z,19.54
2017-10-24T20:24:18.627Z,19.54
2017-10-24T20:27:01.304Z,19.58
2017-10-24T20:29:45.087Z,19.67
2017-10-24T20:32:20.567Z,19.74
2017-10-24T20:34:59.577Z,19.77
2017-10-24T20:37:37.855Z,19.87
2017-10-24T20:40:14.544Z,19.90
2017-10-24T20:43:15.703Z,19.87
2017-10-24T20:45:58.931Z,20.00
2017-10-24T20:48:35.724Z,20.05
2017-10-24T20:51:10.201Z,19.89
2017-10-24T20:53:50.298Z,19.88
2017-10-24T20:56:33.836Z,19.81
2017-10-24T20:59:06.333Z,19.92
2017-10-24T21:01:40.232Z,19.96
2017-10-24T21:04:13.439Z,19.90
2017-10-24T21:06:48.044Z,19.74
2017-10-24T21:09:35.291Z,19.69
2017-10-24T21:12:11.951Z,19.71
2017-10-24T21:14:49.244Z,19.67
2017-10-24T21:17:27.595Z,19.77
2017-10-24T21:20:12.567Z,19.73
2017-10-24T21:22:46.105Z,19.58
2017-10-24T21:25:27.649Z,19.56
2017-10-24T21:28:01.045Z,19.68
2017-10-24T21:30:42.144Z,19.72
2017-10-24T21:33:17.328Z,19.69
2017-10-24T21:35:50.522Z,19.68
2017-10-24T21:38:27.849Z,19.63
2017-10-24T21:41:09.038Z,19.51
2017-10-24T21:43:44.519Z,19.53
2017-10-24T21:46:19.828Z,19.64
2017-10-24T21:48:51.743Z,19.60
2017-10-24T21:51:25.548Z,19.38
2017-10-24T21:53:59.242Z,19.44
2017-10-24T21:56:38.047Z,19.48
2017-10-24T21:59:12.672Z,19.53
2017-10-24T22:01:45.939Z,19.44
2017-10-24T22:04:18.140Z,19.55
2017-10-24T22:06:51.056Z,19.55
2017-10-24T22:09:28.149Z,19.47
2017-10-24T22:12:14.876Z,19.54
2017-10-24T22:14:52.227Z,19.42
2017-10-24T22:17:33.037Z,19.51
2017-10-24T22:20:07.284Z,19.30
2017-10-24T22:22:40.480Z,19.16
2017-10-24T22:25:12.435Z,19.25
2017-10-24T22:27:45.584Z,19.40
2017-10-24T22:30:21.424Z,19.30
2017-10-24T22:32:54.423Z,19.37
2017-10-24T22:36:02.623Z,16.23
2017-10-24T22:38:38.742Z,19.91
2017-10-24T22:46:42.556Z,19.57
2017-10-24T22:49:15.432Z,19.40
2017-10-24T22:51:53.596Z,19.39
2017-10-24T22:54:27.698Z,19.37
2017-10-24T22:57:00.446Z,19.34
2017-10-24T22:59:35.739Z,19.30
2017-10-24T23:02:08.127Z,19.25
2017-10-24T23:04:49.967Z,19.34
2017-10-24T23:07:28.558Z,19.23
2017-10-24T23:10:02.280Z,19.26
2017-10-24T23:12:35.296Z,19.40
2017-10-24T23:15:21.492Z,19.35
2017-10-24T23:18:16.628Z,19.36
2017-10-24T23:21:12.253Z,19.29
2017-10-24T23:23:45.866Z,19.15
2017-10-24T23:26:20.745Z,19.35
2017-10-24T23:28:55.150Z,19.45
2017-10-24T23:31:28.842Z,19.52
2017-10-24T23:34:01.360Z,19.44
2017-10-24T23:36:33.445Z,19.25
2017-10-24T23:39:06.114Z,19.23
2017-10-24T23:41:43.230Z,19.41
2017-10-24T23:44:20.295Z,19.60
2017-10-24T23:47:17.544Z,19.39
2017-10-24T23:49:51.483Z,19.38
2017-10-24T23:52:27.435Z,19.53
2017-10-24T23:54:59.043Z,19.48
2017-10-24T23:57:35.764Z,19.43
